SAL weather

Monseñor Óscar Arnulfo Romero International Airport
San Salvador (San Luis Talpa), La Paz, El Salvador

Public forecast

Using degrees Celsius for public forecast. Weather courtesy of forecast.io.

METAR (pilot weather report)

Retrieved 2019/06/16 00:21 UTC (0 seconds ago):

MSLP 160021Z 23002KT 9999 FEW027 FEW040CB 29/24 Q1009 NOSIG RMK CB N NE NW

TAF (pilot weather forecast)

Forecast is more than 12 hours old.

Retrieved 2019/06/14 18:32 UTC (1 day ago):

TAF MSLP 141525Z 1418/1518 22007KT 9999 SCT023 FEW040CB SCT047 TX33/1418Z TN22/1510Z FM150000 VRB03KT PROB40 TEMPO 1504/1507 08010KT 6000 TSRA BKN020 SCT037CB FM150700 04004KT 9999 FEW020 BKN060